sensor_id;sensor_type;location;lat;lon;timestamp;P1;durP1;ratioP1;P2;durP2;ratioP2
13432;SDS011;6789;47.678;9.158;2022-08-19T00:04:40;3.33;;;3.03;;
13432;SDS011;6789;47.678;9.158;2022-08-19T00:09:32;4.50;;;3.60;;
13432;SDS011;6789;47.678;9.158;2022-08-19T00:14:24;3.40;;;3.10;;
13432;SDS011;6789;47.678;9.158;2022-08-19T00:19:36;4.45;;;3.45;;
13432;SDS011;6789;47.678;9.158;2022-08-19T00:24:43;3.35;;;3.05;;
13432;SDS011;6789;47.678;9.158;2022-08-19T00:29:41;2.95;;;2.67;;
13432;SDS011;6789;47.678;9.158;2022-08-19T00:34:33;3.20;;;2.90;;
13432;SDS011;6789;47.678;9.158;2022-08-19T00:39:42;3.70;;;3.30;;
13432;SDS011;6789;47.678;9.158;2022-08-19T00:45:16;3.85;;;3.25;;
13432;SDS011;6789;47.678;9.158;2022-08-19T00:50:31;4.03;;;3.63;;
13432;SDS011;6789;47.678;9.158;2022-08-19T00:56:11;4.38;;;3.97;;
13432;SDS011;6789;47.678;9.158;2022-08-19T01:01:26;4.32;;;3.90;;
13432;SDS011;6789;47.678;9.158;2022-08-19T01:14:14;5.78;;;4.50;;
13432;SDS011;6789;47.678;9.158;2022-08-19T01:19:39;5.47;;;4.32;;
13432;SDS011;6789;47.678;9.158;2022-08-19T01:29:44;5.20;;;4.65;;
13432;SDS011;6789;47.678;9.158;2022-08-19T01:35:20;5.07;;;4.43;;
13432;SDS011;6789;47.678;9.158;2022-08-19T01:40:16;5.53;;;4.68;;
13432;SDS011;6789;47.678;9.158;2022-08-19T01:45:35;4.55;;;4.00;;
13432;SDS011;6789;47.678;9.158;2022-08-19T01:50:46;4.93;;;4.43;;
13432;SDS011;6789;47.678;9.158;2022-08-19T01:55:40;7.00;;;4.90;;
13432;SDS011;6789;47.678;9.158;2022-08-19T02:00:48;8.23;;;6.28;;
13432;SDS011;6789;47.678;9.158;2022-08-19T02:05:42;5.90;;;5.30;;
13432;SDS011;6789;47.678;9.158;2022-08-19T02:10:50;8.13;;;6.20;;
13432;SDS011;6789;47.678;9.158;2022-08-19T02:15:59;7.25;;;6.00;;
13432;SDS011;6789;47.678;9.158;2022-08-19T02:21:05;7.57;;;6.32;;
13432;SDS011;6789;47.678;9.158;2022-08-19T02:26:14;7.95;;;6.45;;
13432;SDS011;6789;47.678;9.158;2022-08-19T02:31:13;8.65;;;7.22;;
13432;SDS011;6789;47.678;9.158;2022-08-19T02:36:08;11.57;;;7.53;;
13432;SDS011;6789;47.678;9.158;2022-08-19T02:41:07;9.57;;;7.68;;
13432;SDS011;6789;47.678;9.158;2022-08-19T02:46:15;9.02;;;7.32;;
13432;SDS011;6789;47.678;9.158;2022-08-19T02:51:33;9.25;;;7.50;;
13432;SDS011;6789;47.678;9.158;2022-08-19T02:56:47;11.80;;;8.77;;
13432;SDS011;6789;47.678;9.158;2022-08-19T03:02:07;9.30;;;8.13;;
13432;SDS011;6789;47.678;9.158;2022-08-19T03:06:59;10.90;;;9.02;;
13432;SDS011;6789;47.678;9.158;2022-08-19T03:12:08;11.70;;;8.85;;
13432;SDS011;6789;47.678;9.158;2022-08-19T03:17:01;11.75;;;9.45;;
13432;SDS011;6789;47.678;9.158;2022-08-19T03:21:55;12.00;;;10.18;;
13432;SDS011;6789;47.678;9.158;2022-08-19T03:26:51;14.30;;;9.75;;
13432;SDS011;6789;47.678;9.158;2022-08-19T03:31:48;13.80;;;10.75;;
13432;SDS011;6789;47.678;9.158;2022-08-19T03:36:43;14.25;;;10.60;;
13432;SDS011;6789;47.678;9.158;2022-08-19T03:41:37;13.85;;;11.07;;
13432;SDS011;6789;47.678;9.158;2022-08-19T03:46:36;13.43;;;9.90;;
13432;SDS011;6789;47.678;9.158;2022-08-19T03:51:36;14.70;;;10.80;;
13432;SDS011;6789;47.678;9.158;2022-08-19T03:56:43;15.63;;;11.55;;
13432;SDS011;6789;47.678;9.158;2022-08-19T04:02:07;10.95;;;8.90;;
13432;SDS011;6789;47.678;9.158;2022-08-19T04:07:20;12.65;;;9.77;;
13432;SDS011;6789;47.678;9.158;2022-08-19T04:12:35;11.73;;;9.13;;
13432;SDS011;6789;47.678;9.158;2022-08-19T04:17:42;11.82;;;9.20;;
13432;SDS011;6789;47.678;9.158;2022-08-19T04:22:49;13.23;;;10.25;;
13432;SDS011;6789;47.678;9.158;2022-08-19T04:27:55;14.93;;;10.95;;
13432;SDS011;6789;47.678;9.158;2022-08-19T04:38:34;14.40;;;11.32;;
13432;SDS011;6789;47.678;9.158;2022-08-19T04:43:41;14.95;;;10.70;;
13432;SDS011;6789;47.678;9.158;2022-08-19T04:48:53;15.63;;;10.98;;
13432;SDS011;6789;47.678;9.158;2022-08-19T04:54:02;14.73;;;10.70;;
13432;SDS011;6789;47.678;9.158;2022-08-19T04:59:16;17.35;;;11.45;;
13432;SDS011;6789;47.678;9.158;2022-08-19T05:04:26;16.33;;;12.07;;
13432;SDS011;6789;47.678;9.158;2022-08-19T05:10:15;20.63;;;12.30;;
13432;SDS011;6789;47.678;9.158;2022-08-19T05:15:32;19.08;;;12.45;;
13432;SDS011;6789;47.678;9.158;2022-08-19T05:20:43;17.73;;;12.35;;
13432;SDS011;6789;47.678;9.158;2022-08-19T05:26:22;18.88;;;12.18;;
13432;SDS011;6789;47.678;9.158;2022-08-19T05:31:31;17.83;;;12.10;;
13432;SDS011;6789;47.678;9.158;2022-08-19T05:36:39;17.30;;;12.25;;
13432;SDS011;6789;47.678;9.158;2022-08-19T05:41:56;17.88;;;12.65;;
13432;SDS011;6789;47.678;9.158;2022-08-19T05:47:32;17.05;;;11.70;;
13432;SDS011;6789;47.678;9.158;2022-08-19T05:59:46;22.35;;;14.05;;
13432;SDS011;6789;47.678;9.158;2022-08-19T06:05:26;19.08;;;13.13;;
13432;SDS011;6789;47.678;9.158;2022-08-19T06:10:34;18.63;;;12.93;;
13432;SDS011;6789;47.678;9.158;2022-08-19T06:15:41;18.48;;;12.80;;
13432;SDS011;6789;47.678;9.158;2022-08-19T06:21:09;19.40;;;12.93;;
13432;SDS011;6789;47.678;9.158;2022-08-19T06:26:19;22.75;;;14.50;;
13432;SDS011;6789;47.678;9.158;2022-08-19T06:31:28;19.60;;;13.60;;
13432;SDS011;6789;47.678;9.158;2022-08-19T06:37:06;20.35;;;13.30;;
13432;SDS011;6789;47.678;9.158;2022-08-19T07:17:02;19.92;;;15.07;;
13432;SDS011;6789;47.678;9.158;2022-08-19T07:22:43;21.50;;;14.93;;
13432;SDS011;6789;47.678;9.158;2022-08-19T07:28:45;21.38;;;15.05;;
13432;SDS011;6789;47.678;9.158;2022-08-19T07:34:00;23.52;;;15.40;;
13432;SDS011;6789;47.678;9.158;2022-08-19T07:40:16;20.23;;;14.55;;
13432;SDS011;6789;47.678;9.158;2022-08-19T07:45:22;21.00;;;15.27;;
13432;SDS011;6789;47.678;9.158;2022-08-19T07:50:55;20.73;;;14.32;;
13432;SDS011;6789;47.678;9.158;2022-08-19T07:56:08;20.30;;;14.93;;
13432;SDS011;6789;47.678;9.158;2022-08-19T11:03:08;17.45;;;11.20;;
13432;SDS011;6789;47.678;9.158;2022-08-19T11:08:44;17.65;;;11.60;;
13432;SDS011;6789;47.678;9.158;2022-08-19T11:24:55;22.20;;;14.27;;
13432;SDS011;6789;47.678;9.158;2022-08-19T11:30:01;26.77;;;16.88;;
13432;SDS011;6789;47.678;9.158;2022-08-19T11:41:04;31.00;;;19.15;;
13432;SDS011;6789;47.678;9.158;2022-08-19T12:02:13;25.00;;;15.98;;
13432;SDS011;6789;47.678;9.158;2022-08-19T12:07:20;22.35;;;15.73;;
13432;SDS011;6789;47.678;9.158;2022-08-19T12:12:27;22.08;;;15.10;;
13432;SDS011;6789;47.678;9.158;2022-08-19T12:17:41;22.00;;;14.95;;
13432;SDS011;6789;47.678;9.158;2022-08-19T13:21:20;21.15;;;15.88;;
13432;SDS011;6789;47.678;9.158;2022-08-19T14:38:26;23.90;;;18.77;;
13432;SDS011;6789;47.678;9.158;2022-08-19T14:48:57;26.65;;;19.98;;
13432;SDS011;6789;47.678;9.158;2022-08-19T14:55:09;26.92;;;19.15;;
13432;SDS011;6789;47.678;9.158;2022-08-19T15:00:28;24.50;;;18.80;;
13432;SDS011;6789;47.678;9.158;2022-08-19T15:05:49;25.20;;;19.88;;
13432;SDS011;6789;47.678;9.158;2022-08-19T15:40:18;25.55;;;19.48;;
13432;SDS011;6789;47.678;9.158;2022-08-19T15:45:43;23.70;;;19.02;;
13432;SDS011;6789;47.678;9.158;2022-08-19T15:51:04;26.05;;;19.48;;
13432;SDS011;6789;47.678;9.158;2022-08-19T15:56:10;26.83;;;19.20;;
13432;SDS011;6789;47.678;9.158;2022-08-19T16:01:31;26.75;;;19.55;;
13432;SDS011;6789;47.678;9.158;2022-08-19T16:07:07;25.60;;;18.55;;
13432;SDS011;6789;47.678;9.158;2022-08-19T16:12:25;27.73;;;19.17;;
13432;SDS011;6789;47.678;9.158;2022-08-19T16:18:22;24.80;;;18.58;;
13432;SDS011;6789;47.678;9.158;2022-08-19T16:24:04;25.15;;;18.92;;
13432;SDS011;6789;47.678;9.158;2022-08-19T16:29:23;25.48;;;18.45;;
13432;SDS011;6789;47.678;9.158;2022-08-19T16:35:09;27.02;;;18.98;;
13432;SDS011;6789;47.678;9.158;2022-08-19T16:40:31;27.63;;;19.05;;
13432;SDS011;6789;47.678;9.158;2022-08-19T16:46:11;25.73;;;19.52;;
13432;SDS011;6789;47.678;9.158;2022-08-19T16:57:48;30.30;;;21.15;;
13432;SDS011;6789;47.678;9.158;2022-08-19T17:03:30;27.58;;;19.58;;
13432;SDS011;6789;47.678;9.158;2022-08-19T17:08:38;28.92;;;20.55;;
13432;SDS011;6789;47.678;9.158;2022-08-19T17:14:54;29.30;;;19.50;;
13432;SDS011;6789;47.678;9.158;2022-08-19T17:42:23;26.85;;;18.75;;
13432;SDS011;6789;47.678;9.158;2022-08-19T17:47:59;24.05;;;17.50;;
13432;SDS011;6789;47.678;9.158;2022-08-19T17:53:26;23.60;;;17.63;;
13432;SDS011;6789;47.678;9.158;2022-08-19T18:10:06;23.70;;;16.58;;
13432;SDS011;6789;47.678;9.158;2022-08-19T18:21:29;22.60;;;16.67;;
13432;SDS011;6789;47.678;9.158;2022-08-19T18:33:15;23.25;;;16.83;;
13432;SDS011;6789;47.678;9.158;2022-08-19T18:38:22;21.73;;;15.55;;
13432;SDS011;6789;47.678;9.158;2022-08-19T18:56:25;21.30;;;14.55;;
13432;SDS011;6789;47.678;9.158;2022-08-19T19:18:10;17.02;;;13.18;;
13432;SDS011;6789;47.678;9.158;2022-08-19T19:34:22;16.42;;;13.35;;
13432;SDS011;6789;47.678;9.158;2022-08-19T19:40:00;16.17;;;12.05;;
13432;SDS011;6789;47.678;9.158;2022-08-19T19:45:19;18.40;;;12.98;;
13432;SDS011;6789;47.678;9.158;2022-08-19T19:51:49;17.92;;;13.35;;
13432;SDS011;6789;47.678;9.158;2022-08-19T19:57:22;18.02;;;13.75;;
13432;SDS011;6789;47.678;9.158;2022-08-19T20:02:39;19.45;;;13.30;;
13432;SDS011;6789;47.678;9.158;2022-08-19T20:07:48;17.52;;;13.25;;
13432;SDS011;6789;47.678;9.158;2022-08-19T20:13:17;17.73;;;13.18;;
13432;SDS011;6789;47.678;9.158;2022-08-19T20:18:25;17.27;;;13.35;;
13432;SDS011;6789;47.678;9.158;2022-08-19T20:23:37;16.13;;;12.68;;
13432;SDS011;6789;47.678;9.158;2022-08-19T20:28:55;20.70;;;13.63;;
13432;SDS011;6789;47.678;9.158;2022-08-19T22:23:20;12.20;;;10.07;;
13432;SDS011;6789;47.678;9.158;2022-08-19T22:34:56;12.65;;;10.57;;
13432;SDS011;6789;47.678;9.158;2022-08-19T22:46:22;13.20;;;10.77;;
13432;SDS011;6789;47.678;9.158;2022-08-19T22:51:55;12.73;;;10.23;;
13432;SDS011;6789;47.678;9.158;2022-08-19T23:24:03;12.07;;;9.52;;
13432;SDS011;6789;47.678;9.158;2022-08-19T23:29:11;11.60;;;9.73;;
13432;SDS011;6789;47.678;9.158;2022-08-19T23:39:59;12.82;;;10.20;;
13432;SDS011;6789;47.678;9.158;2022-08-19T23:56:55;12.85;;;10.30;;
